PWSweather.com
Personal Weather Stations
Station Observations
UPSTATEWEATHER
Silver Leaf, Greer, SC 29650

Silver LeafGreer, SC 29650

Lat: 34.8955792, Lon: -82.2868211

Elevation: 875

Station Type: Davis Vantage Vue

https://www.upstateweather.com

High Low Average
Temperature 86.1°F30.1°C 61.7°F16.5°C 73.1°F22.8°C
Dew Point 66.5°F19.2°C 59.7°F15.4°C 62.8°F17.1°C
Winds 2.3 mph 3.7 kmh Calm Calm Calm NCalm N
Wind Gusts 3.5 mph5.6 kmh -- --
Humidity 93% 43% 73%
Pressure 30.24 in1024.0 mb 30.09 in1019.0 mb -
Precipitation 0.00 in0.0 mm - -
Hour Temp Dew Point Humidity Winds Wind Gusts Pressure Precip Precip Rate Daily Precip Total
12:00 AM 66.1°F18.9°C 62.4°F16.9°C 88% Calm Calm -- 30.23 in1023.7 mb - 0.00 in0.0 mm 0.00 in0.0 mm
12:15 AM 65.8°F18.8°C 62.1°F16.7°C 88% Calm Calm -- 30.23 in1023.7 mb - 0.00 in0.0 mm 0.00 in0.0 mm
12:30 AM 65.6°F18.7°C 62.3°F16.8°C 89% Calm Calm -- 30.23 in1023.7 mb - 0.00 in0.0 mm 0.00 in0.0 mm
12:45 AM 65.4°F18.6°C 62.0°F16.7°C 89% Calm Calm -- 30.22 in1023.4 mb - 0.00 in0.0 mm 0.00 in0.0 mm
01:00 AM 65.0°F18.3°C 62.0°F16.7°C 90% Calm Calm -- 30.22 in1023.4 mb - 0.00 in0.0 mm 0.00 in0.0 mm
01:15 AM 64.6°F18.1°C 61.9°F16.6°C 91% Calm Calm -- 30.22 in1023.4 mb - 0.00 in0.0 mm 0.00 in0.0 mm
01:30 AM 64.4°F18.0°C 61.7°F16.5°C 91% Calm Calm -- 30.22 in1023.4 mb - 0.00 in0.0 mm 0.00 in0.0 mm
01:45 AM 64.3°F17.9°C 61.6°F16.4°C 91% Calm Calm -- 30.22 in1023.4 mb - 0.00 in0.0 mm 0.00 in0.0 mm
02:00 AM 64.2°F17.9°C 61.8°F16.6°C 92% Calm Calm -- 30.21 in1023.0 mb - 0.00 in0.0 mm 0.00 in0.0 mm
02:15 AM 64.2°F17.9°C 61.8°F16.6°C 92% Calm Calm -- 30.21 in1023.0 mb - 0.00 in0.0 mm 0.00 in0.0 mm
02:30 AM 64.1°F17.8°C 61.7°F16.5°C 92% Calm Calm -- 30.21 in1023.0 mb - 0.00 in0.0 mm 0.00 in0.0 mm
02:45 AM 63.7°F17.6°C 61.3°F16.3°C 92% Calm Calm -- 30.21 in1023.0 mb - 0.00 in0.0 mm 0.00 in0.0 mm
03:00 AM 63.5°F17.5°C 61.1°F16.2°C 92% Calm Calm -- 30.21 in1023.0 mb - 0.00 in0.0 mm 0.00 in0.0 mm
03:15 AM 63.3°F17.4°C 60.9°F16.1°C 92% Calm Calm -- 30.21 in1023.0 mb - 0.00 in0.0 mm 0.00 in0.0 mm
03:30 AM 63.0°F17.2°C 61.0°F16.1°C 93% Calm Calm -- 30.20 in1022.7 mb - 0.00 in0.0 mm 0.00 in0.0 mm
03:45 AM 62.9°F17.2°C 60.8°F16.0°C 93% Calm Calm -- 30.20 in1022.7 mb - 0.00 in0.0 mm 0.00 in0.0 mm
04:00 AM 62.6°F17.0°C 60.6°F15.9°C 93% Calm Calm -- 30.20 in1022.7 mb - 0.00 in0.0 mm 0.00 in0.0 mm
04:15 AM 62.3°F16.8°C 60.2°F15.7°C 93% Calm Calm -- 30.21 in1023.0 mb - 0.00 in0.0 mm 0.00 in0.0 mm
04:30 AM 62.0°F16.7°C 60.0°F15.6°C 93% Calm Calm -- 30.20 in1022.7 mb - 0.00 in0.0 mm 0.00 in0.0 mm
04:45 AM 61.7°F16.5°C 59.7°F15.4°C 93% Calm Calm -- 30.20 in1022.7 mb - 0.00 in0.0 mm 0.00 in0.0 mm
05:00 AM 61.8°F16.6°C 59.8°F15.4°C 93% Calm Calm -- 30.21 in1023.0 mb - 0.00 in0.0 mm 0.00 in0.0 mm
05:15 AM 62.4°F16.9°C 60.3°F15.7°C 93% Calm Calm -- 30.21 in1023.0 mb - 0.00 in0.0 mm 0.00 in0.0 mm
05:30 AM 62.6°F17.0°C 60.5°F15.8°C 93% Calm Calm -- 30.21 in1023.0 mb - 0.00 in0.0 mm 0.00 in0.0 mm
05:45 AM 62.7°F17.1°C 60.3°F15.7°C 92% Calm Calm -- 30.21 in1023.0 mb - 0.00 in0.0 mm 0.00 in0.0 mm
06:00 AM 62.8°F17.1°C 60.4°F15.8°C 92% Calm Calm -- 30.21 in1023.0 mb - 0.00 in0.0 mm 0.00 in0.0 mm
06:15 AM 62.8°F17.1°C 60.1°F15.6°C 91% Calm Calm -- 30.21 in1023.0 mb - 0.00 in0.0 mm 0.00 in0.0 mm
06:30 AM 62.6°F17.0°C 60.2°F15.7°C 92% Calm Calm -- 30.21 in1023.0 mb - 0.00 in0.0 mm 0.00 in0.0 mm
06:45 AM 62.3°F16.8°C 59.9°F15.5°C 92% Calm Calm -- 30.22 in1023.4 mb - 0.00 in0.0 mm 0.00 in0.0 mm
07:00 AM 62.3°F16.8°C 60.2°F15.7°C 93% Calm Calm -- 30.22 in1023.4 mb - 0.00 in0.0 mm 0.00 in0.0 mm
07:15 AM 62.2°F16.8°C 60.2°F15.7°C 93% Calm Calm -- 30.22 in1023.4 mb - 0.00 in0.0 mm 0.00 in0.0 mm
07:30 AM 62.7°F17.1°C 60.6°F15.9°C 93% Calm Calm -- 30.23 in1023.7 mb - 0.00 in0.0 mm 0.00 in0.0 mm
07:45 AM 63.5°F17.5°C 61.1°F16.2°C 92% Calm Calm -- 30.23 in1023.7 mb - 0.00 in0.0 mm 0.00 in0.0 mm
08:00 AM 65.0°F18.3°C 62.7°F17.1°C 92% Calm Calm -- 30.23 in1023.7 mb - 0.00 in0.0 mm 0.00 in0.0 mm
08:15 AM 66.8°F19.3°C 63.8°F17.7°C 90% Calm Calm -- 30.24 in1024.0 mb - 0.00 in0.0 mm 0.00 in0.0 mm
08:30 AM 68.4°F20.2°C 64.7°F18.2°C 88% Calm Calm -- 30.24 in1024.0 mb - 0.00 in0.0 mm 0.00 in0.0 mm
08:45 AM 69.8°F21.0°C 65.7°F18.7°C 87% Calm Calm -- 30.24 in1024.0 mb - 0.00 in0.0 mm 0.00 in0.0 mm
09:00 AM 71.5°F21.9°C 66.1°F18.9°C 83% Calm Calm 1.2 mph1.9 kmh 30.23 in1023.7 mb - 0.00 in0.0 mm 0.00 in0.0 mm
09:15 AM 72.8°F22.7°C 66.3°F19.1°C 80% Calm Calm -- 30.24 in1024.0 mb - 0.00 in0.0 mm 0.00 in0.0 mm
09:30 AM 74.6°F23.7°C 65.4°F18.6°C 73% Calm Calm -- 30.24 in1024.0 mb - 0.00 in0.0 mm 0.00 in0.0 mm
09:45 AM 75.9°F24.4°C 65.4°F18.6°C 70% Calm Calm -- 30.23 in1023.7 mb - 0.00 in0.0 mm 0.00 in0.0 mm
10:00 AM 77.2°F25.1°C 66.2°F19.0°C 69% Calm Calm -- 30.22 in1023.4 mb - 0.00 in0.0 mm 0.00 in0.0 mm
10:15 AM 78.5°F25.8°C 65.7°F18.7°C 65% Calm Calm -- 30.22 in1023.4 mb - 0.00 in0.0 mm 0.00 in0.0 mm
10:30 AM 80.4°F26.9°C 66.2°F19.0°C 62% Calm Calm -- 30.21 in1023.0 mb - 0.00 in0.0 mm 0.00 in0.0 mm
10:45 AM 81.3°F27.4°C 66.5°F19.2°C 61% 1.2 mph N1.9 kmh N 2.3 mph3.7 kmh 30.21 in1023.0 mb - 0.00 in0.0 mm 0.00 in0.0 mm
11:00 AM 82.8°F28.2°C 65.5°F18.6°C 56% Calm Calm 1.2 mph1.9 kmh 30.20 in1022.7 mb - 0.00 in0.0 mm 0.00 in0.0 mm
11:15 AM 82.9°F28.3°C 64.6°F18.1°C 54% 1.2 mph N1.9 kmh N 1.2 mph1.9 kmh 30.20 in1022.7 mb - 0.00 in0.0 mm 0.00 in0.0 mm
11:30 AM 85.0°F29.4°C 65.4°F18.6°C 52% Calm Calm -- 30.20 in1022.7 mb - 0.00 in0.0 mm 0.00 in0.0 mm
11:45 AM 84.2°F29.0°C 64.1°F17.8°C 51% Calm Calm -- 30.19 in1022.4 mb - 0.00 in0.0 mm 0.00 in0.0 mm
12:00 PM 84.4°F29.1°C 63.2°F17.3°C 49% 1.2 mph N1.9 kmh N 3.5 mph5.6 kmh 30.18 in1022.0 mb - 0.00 in0.0 mm 0.00 in0.0 mm
12:15 PM 84.8°F29.3°C 63.5°F17.5°C 49% Calm Calm -- 30.17 in1021.7 mb - 0.00 in0.0 mm 0.00 in0.0 mm
12:30 PM 84.6°F29.2°C 62.7°F17.1°C 48% Calm Calm -- 30.16 in1021.3 mb - 0.00 in0.0 mm 0.00 in0.0 mm
12:45 PM 85.2°F29.6°C 63.3°F17.4°C 48% Calm Calm 1.2 mph1.9 kmh 30.16 in1021.3 mb - 0.00 in0.0 mm 0.00 in0.0 mm
01:00 PM 85.1°F29.5°C 62.0°F16.7°C 46% 1.2 mph N1.9 kmh N 2.3 mph3.7 kmh 30.15 in1021.0 mb - 0.00 in0.0 mm 0.00 in0.0 mm
01:15 PM 84.9°F29.4°C 63.0°F17.2°C 48% Calm Calm -- 30.14 in1020.7 mb - 0.00 in0.0 mm 0.00 in0.0 mm
01:30 PM 84.7°F29.3°C 61.6°F16.4°C 46% Calm Calm 1.2 mph1.9 kmh 30.14 in1020.7 mb - 0.00 in0.0 mm 0.00 in0.0 mm
01:45 PM 85.2°F29.6°C 62.1°F16.7°C 46% Calm Calm 1.2 mph1.9 kmh 30.14 in1020.7 mb - 0.00 in0.0 mm 0.00 in0.0 mm
02:00 PM 85.4°F29.7°C 62.2°F16.8°C 46% Calm Calm 1.2 mph1.9 kmh 30.14 in1020.7 mb - 0.00 in0.0 mm 0.00 in0.0 mm
02:15 PM 85.3°F29.6°C 62.8°F17.1°C 47% Calm Calm 1.2 mph1.9 kmh 30.13 in1020.3 mb - 0.00 in0.0 mm 0.00 in0.0 mm
02:30 PM 86.0°F30.0°C 61.5°F16.4°C 44% 1.2 mph N1.9 kmh N 2.3 mph3.7 kmh 30.12 in1020.0 mb - 0.00 in0.0 mm 0.00 in0.0 mm
02:45 PM 85.9°F29.9°C 62.1°F16.7°C 45% Calm Calm 1.2 mph1.9 kmh 30.11 in1019.6 mb - 0.00 in0.0 mm 0.00 in0.0 mm
03:00 PM 85.5°F29.7°C 63.0°F17.2°C 47% 1.2 mph N1.9 kmh N 2.3 mph3.7 kmh 30.11 in1019.6 mb - 0.00 in0.0 mm 0.00 in0.0 mm
03:15 PM 86.1°F30.1°C 60.9°F16.1°C 43% 1.2 mph N1.9 kmh N 3.5 mph5.6 kmh 30.11 in1019.6 mb - 0.00 in0.0 mm 0.00 in0.0 mm
03:30 PM 85.6°F29.8°C 61.8°F16.6°C 45% Calm Calm -- 30.11 in1019.6 mb - 0.00 in0.0 mm 0.00 in0.0 mm
03:45 PM 85.7°F29.8°C 64.9°F18.3°C 50% Calm Calm -- 30.10 in1019.3 mb - 0.00 in0.0 mm 0.00 in0.0 mm
04:00 PM 85.3°F29.6°C 61.6°F16.4°C 45% 2.3 mph N3.7 kmh N 3.5 mph5.6 kmh 30.10 in1019.3 mb - 0.00 in0.0 mm 0.00 in0.0 mm
04:15 PM 85.1°F29.5°C 63.8°F17.7°C 49% Calm Calm 1.2 mph1.9 kmh 30.10 in1019.3 mb - 0.00 in0.0 mm 0.00 in0.0 mm
04:30 PM 84.3°F29.1°C 63.1°F17.3°C 49% Calm Calm -- 30.10 in1019.3 mb - 0.00 in0.0 mm 0.00 in0.0 mm
04:45 PM 82.8°F28.2°C 61.7°F16.5°C 49% Calm Calm -- 30.09 in1019.0 mb - 0.00 in0.0 mm 0.00 in0.0 mm
05:00 PM 82.8°F28.2°C 63.9°F17.7°C 53% Calm Calm -- 30.09 in1019.0 mb - 0.00 in0.0 mm 0.00 in0.0 mm
05:15 PM 82.3°F27.9°C 64.0°F17.8°C 54% Calm Calm -- 30.09 in1019.0 mb - 0.00 in0.0 mm 0.00 in0.0 mm
05:30 PM 81.6°F27.6°C 63.9°F17.7°C 55% Calm Calm -- 30.09 in1019.0 mb - 0.00 in0.0 mm 0.00 in0.0 mm
05:45 PM 81.0°F27.2°C 63.8°F17.7°C 56% Calm Calm -- 30.09 in1019.0 mb - 0.00 in0.0 mm 0.00 in0.0 mm
06:00 PM 80.3°F26.8°C 64.2°F17.9°C 58% Calm Calm -- 30.09 in1019.0 mb - 0.00 in0.0 mm 0.00 in0.0 mm
06:15 PM 79.7°F26.5°C 64.1°F17.8°C 59% Calm Calm -- 30.09 in1019.0 mb - 0.00 in0.0 mm 0.00 in0.0 mm
06:30 PM 79.0°F26.1°C 64.4°F18.0°C 61% Calm Calm -- 30.10 in1019.3 mb - 0.00 in0.0 mm 0.00 in0.0 mm
06:45 PM 78.3°F25.7°C 64.2°F17.9°C 62% Calm Calm -- 30.10 in1019.3 mb - 0.00 in0.0 mm 0.00 in0.0 mm
07:00 PM 77.4°F25.2°C 63.8°F17.7°C 63% Calm Calm -- 30.10 in1019.3 mb - 0.00 in0.0 mm 0.00 in0.0 mm
07:15 PM 76.2°F24.6°C 64.9°F18.3°C 68% Calm Calm -- 30.10 in1019.3 mb - 0.00 in0.0 mm 0.00 in0.0 mm
07:30 PM 75.4°F24.1°C 64.9°F18.3°C 70% Calm Calm -- 30.11 in1019.6 mb - 0.00 in0.0 mm 0.00 in0.0 mm
07:45 PM 74.9°F23.8°C 64.5°F18.1°C 70% Calm Calm -- 30.11 in1019.6 mb - 0.00 in0.0 mm 0.00 in0.0 mm
08:00 PM 74.3°F23.5°C 64.3°F17.9°C 71% Calm Calm -- 30.11 in1019.6 mb - 0.00 in0.0 mm 0.00 in0.0 mm
08:15 PM 73.3°F22.9°C 64.9°F18.3°C 75% Calm Calm -- 30.12 in1020.0 mb - 0.00 in0.0 mm 0.00 in0.0 mm
08:30 PM 72.6°F22.6°C 64.6°F18.1°C 76% Calm Calm -- 30.11 in1019.6 mb - 0.00 in0.0 mm 0.00 in0.0 mm
08:45 PM 72.3°F22.4°C 64.7°F18.2°C 77% Calm Calm -- 30.11 in1019.6 mb - 0.00 in0.0 mm 0.00 in0.0 mm
09:00 PM 71.7°F22.1°C 63.7°F17.6°C 76% Calm Calm -- 30.12 in1020.0 mb - 0.00 in0.0 mm 0.00 in0.0 mm
09:15 PM 71.1°F21.7°C 63.9°F17.7°C 78% Calm Calm -- 30.12 in1020.0 mb - 0.00 in0.0 mm 0.00 in0.0 mm
09:30 PM 70.5°F21.4°C 63.7°F17.6°C 79% Calm Calm -- 30.12 in1020.0 mb - 0.00 in0.0 mm 0.00 in0.0 mm
09:45 PM 69.8°F21.0°C 63.7°F17.6°C 81% Calm Calm -- 30.12 in1020.0 mb - 0.00 in0.0 mm 0.00 in0.0 mm
10:00 PM 69.2°F20.7°C 63.4°F17.4°C 82% Calm Calm -- 30.12 in1020.0 mb - 0.00 in0.0 mm 0.00 in0.0 mm
10:15 PM 68.5°F20.3°C 62.8°F17.1°C 82% Calm Calm -- 30.12 in1020.0 mb - 0.00 in0.0 mm 0.00 in0.0 mm
10:30 PM 68.1°F20.1°C 63.1°F17.3°C 84% Calm Calm -- 30.12 in1020.0 mb - 0.00 in0.0 mm 0.00 in0.0 mm
10:45 PM 67.7°F19.8°C 62.7°F17.1°C 84% Calm Calm -- 30.12 in1020.0 mb - 0.00 in0.0 mm 0.00 in0.0 mm
11:00 PM 67.3°F19.6°C 63.0°F17.2°C 86% Calm Calm -- 30.11 in1019.6 mb - 0.00 in0.0 mm 0.00 in0.0 mm
11:15 PM 67.0°F19.4°C 63.0°F17.2°C 87% Calm Calm -- 30.11 in1019.6 mb - 0.00 in0.0 mm 0.00 in0.0 mm
11:30 PM 66.6°F19.2°C 62.6°F17.0°C 87% Calm Calm -- 30.11 in1019.6 mb - 0.00 in0.0 mm 0.00 in0.0 mm
11:45 PM 66.4°F19.1°C 62.7°F17.1°C 88% Calm Calm -- 30.11 in1019.6 mb - 0.00 in0.0 mm 0.00 in0.0 mm